2015 Tour de Jalapeno Results

[ Jalapeno Race ] [ 26 Mile Sprint Race ] [ 26 Mile Tour ] [ 50 Mile Tour ]
2015 Tour de Jalapeno
26 Mile Jalapeno Race Results
AG
Pos
Gender
Pos
Overall
Pos
Name Race No Finish Time Pace
(26 miles)
# Jalapenos Adjustment
Time
Adjusted
Final
Time
Adjusted
Pace
Overall
Female
1 1 4 Monica MADERO 177 01:55:23 13.5 m/hr 16 -01:20:00 00:35:23 44.1 m/hr
2 2 10 Lisa ANDREWS 6 01:54:14 13.7 m/hr 9 -00:45:00 01:09:14 22.5 m/hr
3 3 11 Kira BROWN 32 01:50:40 14.1 m/hr 8 -00:40:00 01:10:40 22.1 m/hr
Male
1 1 1 Shawn KVERNEN 154 01:40:54 15.5 m/hr 17 -01:25:00 00:15:54 98.1 m/hr
2 2 2 Gerardo GOMEZ 109 01:33:42 16.6 m/hr 14 -01:10:00 00:23:42 65.8 m/hr
3 3 3 Nguyen LAM 155 02:05:31 12.4 m/hr 20 -01:40:00 00:25:31 61.1 m/hr
Ages 19 and Under
Male
1 15 18 Ian MCQUAID 419 01:49:24 14.3 m/hr 4 -00:20:00 01:29:24 17.4 m/hr
Ages 20 - 29
Male
1 6 7 David SANDVIG 257 01:30:30 17.2 m/hr 5 -00:25:00 01:05:30 23.8 m/hr
2 7 8 Patrick PICHE 348 01:51:22 14.0 m/hr 9 -00:45:00 01:06:22 23.5 m/hr
3 17 20 Joshua GOTAY 341 01:51:24 14.0 m/hr 3 -00:15:00 01:36:24 16.2 m/hr
4 21 26 Toby BOYD 410 01:54:09 13.7 m/hr 1 -00:05:00 01:49:09 14.3 m/hr
5 22 28 Kevin KROGH 423 02:40:52 9.7 m/hr 4 -00:20:00 02:20:52 11.1 m/hr
Ages 30 - 39
Male
1 5 6 Frank DANNA 66 01:13:50 21.1 m/hr 3 -00:15:00 00:58:50 26.5 m/hr
2 20 25 Mark POND 378 01:59:00 13.1 m/hr 2 -00:10:00 01:49:00 14.3 m/hr
Ages 40 - 49
Female
1 4 23 Anel POND 377 02:23:40 10.9 m/hr 8 -00:40:00 01:43:40 15.0 m/hr
Male
1 4 5 Scott RIISE 238 01:14:52 20.8 m/hr 4 -00:20:00 00:54:52 28.4 m/hr
2 8 9 Jeff WOODS-BERNARDINE 325 02:08:15 12.2 m/hr 12 -01:00:00 01:08:15 22.9 m/hr
3 9 12 S MCQUIAD 418 01:44:20 14.9 m/hr 6 -00:30:00 01:14:20 21.0 m/hr
4 10 13 Ray TESKE 284 01:19:33 19.6 m/hr     01:19:33 19.6 m/hr
5 11 14 Joe SENA 264 01:44:40 14.9 m/hr 5 -00:25:00 01:19:40 19.6 m/hr
6 13 16 Blake CUDWORTH 63 01:47:15 14.5 m/hr 4 -00:20:00 01:27:15 17.9 m/hr
7 16 19 Danny HAVARD 384 01:49:08 14.3 m/hr 3 -00:15:00 01:34:08 16.6 m/hr
Ages 50 - 59
Female
1 5 24 Louann WAGNER 303 01:43:57 15.0 m/hr     01:43:57 15.0 m/hr
2 6 27 Donna LAWSON 158 02:11:25 11.9 m/hr     02:11:25 11.9 m/hr
Male
1 12 15 Stewart JOHNSON 136 01:22:20 18.9 m/hr     01:22:20 18.9 m/hr
2 14 17 Albert ESTRELLO 86 01:43:49 15.0 m/hr 3 -00:15:00 01:28:49 17.6 m/hr
Ages 60 - 69
Male
1 18 21 Everardo ARMENDARIZ 7 02:03:33 12.6 m/hr 5 -00:25:00 01:38:33 15.8 m/hr
2 19 22 Whit KNOX 149 01:42:49 15.2 m/hr     01:42:49 15.2 m/hr
Chip Timing by RRPTiming.com!

 

[ Jalapeno Race ] [ 26 Mile Sprint Race ] [ 26 Mile Tour ] [ 50 Mile Tour ]

2015 Tour de Jalapeno
26 Mile Sprint Race Results
Age Group
Pos
Gender
Pos
Overall
Pos
Name Race No Finish
Time
Pace
Overall
Female
1 1 8 Jaime HOLLINGSWORTH 128 01:07:06 23.3 m/hr
2 2 20 Lety Sanchez 379 01:14:44 21.0 m/hr
3 3 42 Mel Villarreal 364 01:24:17 18.6 m/hr
Male
1 1 1 Esteban J SARTORIO 337 01:07:03 23.4 m/hr
2 2 2 Doug RAY 226 01:07:03 23.4 m/hr
3 3 3 Jeffrey REITER 230 01:07:03 23.4 m/hr
Ages 19 and Under
Male
1 7 7 Stephen MCCOY 182 01:07:05 23.4 m/hr
2 26 28 Larry ALLEN 4 01:16:50 20.6 m/hr
3 66 90 Carson TUTTLE 292 01:51:06 14.2 m/hr
4 74 106 David Vazquez 435 02:06:12 15.2 m/hr
Ages 20 - 29
Female
1 4 47 Sara Adams 365 01:26:38 18.1 m/hr
2 13 67 Kelly PORTMANN 221 01:35:37 16.5 m/hr
3 26 94 Nicole WALLS 309 01:55:01 13.8 m/hr
Male
1 41 44 David WILLIS 355 01:26:10 18.4 m/hr
2 53 65 Gilberto GOMEZ 110 01:34:16 16.7 m/hr
3 55 68 Adam PORTMANN 220 01:35:38 16.5 m/hr
4 60 78 Adam Lee Kruegen 397 01:42:01 15.3 m/hr
Ages 30 - 39
Female
1 12 64 Melissa Fijardo 394 01:34:15 16.7 m/hr
2 16 74 Shannon DRICHTA 81 01:40:12 15.6 m/hr
3 17 75 Emily BITETTO 18 01:40:36 15.7 m/hr
4 20 83 Jennifer NICKEL 201 01:43:07 15.3 m/hr
5 22 86 Brandie PAPAGEORGE 210 01:45:28 14.9 m/hr
6 25 92 Carly TOVAR 289 01:54:03 13.7 m/hr
7 27 95 Kelly HUBER 129 01:55:10 14.6 m/hr
8 33 107 Maruteve Guerraro 436 02:08:17 14.9 m/hr
9 34 108 Elizabeth MCGUINNESS 184 02:10:03 12.1 m/hr
Male
1 6 6 Randy Bowman 389 01:07:05 23.4 m/hr
2 9 10 Matt PRENTICE 222 01:07:07 23.4 m/hr
3 11 12 Benjamin DANIEL 402 01:07:07 23.4 m/hr
4 19 21 Brandon BRISTOW 347 01:15:29 20.9 m/hr
5 20 22 Daniel ROOSE 244 01:16:22 20.5 m/hr
6 30 32 Antonio LOPEZ 167 01:17:56 20.5 m/hr
7 33 35 Johnny WALLS 307 01:18:27 20.2 m/hr
8 42 45 Edwardo Gomez 392 01:26:17 18.2 m/hr
9 43 46 Ryan FAY 90 01:26:20 18.2 m/hr
10 44 48 Jonathan BRANDT 416 01:27:39 18.3 m/hr
11 50 56 James Thompson 398 01:29:26 17.5 m/hr
12 56 69 Michael CALDERON 42 01:36:08 16.4 m/hr
13 61 79 Juan DOMINGUEZ 79 01:42:05 15.6 m/hr
14 73 105 Victor TREVINO 290 02:04:20 12.8 m/hr
Ages 40 - 49
Female
1 5 53 Lisa BRINK 27 01:28:59 17.9 m/hr
2 8 59 Wendy Jhessen 407 01:30:24 18.8 m/hr
3 9 60 Christy ISETT 133 01:31:16 17.2 m/hr
4 10 62 Reanee Coffman 390 01:31:32 17.1 m/hr
5 14 70 Kelly SILE 268 01:36:35 16.3 m/hr
6 15 71 Myra SCHWARTZ 260 01:36:36 16.3 m/hr
7 19 80 Dana GUILLORY 114 01:42:09 15.5 m/hr
8 24 89 Tammy TUTTLE 293 01:50:50 14.2 m/hr
9 30 101 Wendie JONES 138 02:01:41 13.1 m/hr
10 32 104 Delain LORENA 360 02:03:53 12.8 m/hr
11 35 109 Krista RICHARDS 237 02:15:02 11.7 m/hr
12 36 111 Raquel Sandoval 393 03:06:35 9.0 m/hr
Male
1 13 14 Antonio Hernandez 380 01:07:09 23.4 m/hr
2 17 18 Hoan PHO 218 01:12:23 21.7 m/hr
3 21 23 Julian SCHWARTZ 261 01:16:23 20.8 m/hr
4 27 29 Dean MCINNIS 185 01:16:50 20.4 m/hr
5 29 31 Angel BALLESTER 10 01:17:50 20.2 m/hr
6 31 33 Christian MACALLISTER 176 01:17:59 20.5 m/hr
7 34 36 Rafael HINOJOSA 127 01:19:03 19.9 m/hr
8 39 41 Jeff BUSHAW 41 01:21:52 19.5 m/hr
9 46 50 Ricky SUGGS 278 01:28:00 18.2 m/hr
10 47 51 Gilbert YTUARTE 327 01:28:02 18.2 m/hr
11 58 73 Andrew PARRA 211 01:40:08 15.8 m/hr
12 67 91 Tim SMITH 269 01:51:54 14.2 m/hr
13 68 93 Mike HUNSUCKER 130 01:54:55 14.6 m/hr
14 69 97 John PAYNE 213 01:55:55 13.7 m/hr
15 72 102 Bryan JONES 137 02:01:42 13.0 m/hr
Ages 50 - 59
Female
1 6 55 Karen RAY 227 01:29:06 17.6 m/hr
2 7 58 Alma Molina 361 01:29:44 17.5 m/hr
3 11 63 Kimberley FELTY 91 01:32:34 17.1 m/hr
4 18 76 Eluia Garcia 362 01:40:51 15.6 m/hr
5 21 84 Rebecca WALKER 305 01:43:29 15.1 m/hr
6 28 96 Olga PAYNE 212 01:55:54 13.7 m/hr
7 29 100 Donna FOLEY 98 01:58:22 13.3 m/hr
Male
1 4 4 Steven Ragaledo 424 01:07:04 23.4 m/hr
2 8 9 Jose GONZALEZ 112 01:07:07 23.4 m/hr
3 10 11 Joe CARREON 48 01:07:07 23.4 m/hr
4 12 13 Fernando Sosa 387 01:07:08 23.4 m/hr
5 14 15 Fonz Villarreal 363 01:12:16 21.7 m/hr
6 15 16 Jim Clancy 396 01:12:16 21.7 m/hr
7 16 17 Richard RUDERMAN 246 01:12:19 21.7 m/hr
8 18 19 Stephen WELLINGTON 318 01:12:23 21.7 m/hr
9 22 24 Lendell LAXTON 161 01:16:23 20.5 m/hr
10 23 25 Bruce MCMILLAN 186 01:16:32 20.5 m/hr
11 24 26 Thomas WOLTER 324 01:16:33 20.5 m/hr
12 28 30 William BLACKFORD 19 01:17:12 20.4 m/hr
13 32 34 Greg Floyd 417 01:18:01 20.3 m/hr
14 35 37 David MCMILLAN 187 01:20:40 19.9 m/hr
15 36 38 Michael DEHECK 72 01:20:53 19.4 m/hr
16 37 39 Michael KENNICK 145 01:20:54 19.5 m/hr
17 38 40 Joseph KLAGES 147 01:20:56 19.4 m/hr
18 40 43 Ismael VENEGAS 301 01:24:26 18.6 m/hr
19 45 49 Robert LUDWICK 171 01:27:41 18.0 m/hr
20 48 52 Edward REYNA 234 01:28:38 17.9 m/hr
21 51 57 Charlie JIMENEZ 135 01:29:33 17.8 m/hr
22 57 72 John MCCOY 183 01:38:56 15.8 m/hr
23 59 77 David BENAVIDES 17 01:41:50 15.4 m/hr
24 62 81 Mario SAENZ 249 01:42:34 15.5 m/hr
25 63 82 Abel Casas 381 01:42:39 16.5 m/hr
26 70 98 Julio DEL RIO 73 01:56:21 14.5 m/hr
Ages 60 - 69
Female
1 37 112 Carla HEBERT 121 03:12:02 8.2 m/hr
Male
1 5 5 John MANGAN 352 01:07:05 23.3 m/hr
2 25 27 Randy OHMAN 206 01:16:34 20.4 m/hr
3 49 54 Stephen HUNTER 131 01:29:02 17.6 m/hr
4 52 61 Eli LUCIO 170 01:31:25 17.5 m/hr
5 54 66 Edward ROBERTS 239 01:34:20 16.8 m/hr
6 64 85 Joe PUTNAM 224 01:43:53 15.1 m/hr
7 65 88 Richard Ruckman 385 01:46:30 14.8 m/hr
8 71 99 Jim FOLEY 99 01:58:21 13.3 m/hr
9 75 110 Joseph LEONGUERRERO 164 02:39:06 10.5 m/hr
Ages 70 - 79
Female
1 23 87 Bonny CUNDIFF 64 01:45:38 15.0 m/hr
2 31 103 Julia OLENE 208 02:03:22 13.7 m/hr
Male
1 76 113 Gary OLENE 207 03:12:28 8.5 m/hr
Chip Timing by RRPTiming.com!

 

[ Jalapeno Race ] [ 26 Mile Sprint Race ] [ 26 Mile Tour ] [ 50 Mile Tour ]

2015 Tour de Jalapeno
26 Mile Tour Results
Overall
Pos
Gender
Pos
Name Gender Race No Finish
Time
Pace
1 1 Orice TANNER Male 280 01:26:46.00 18.0 m/hr
2 2 Donald DE LA FUENTE Male 68 01:26:49.00 18.0 m/hr
3 3 Aurelio GUTIERREZ Male 115 01:26:50.00 18.0 m/hr
4 4 Arlon Walker Male 404 01:27:20.00 17.9 m/hr
5 5 John Barnhouse Male 406 01:30:02.00 17.3 m/hr
6 6 Mark WATTS Male 314 01:31:41.00 17.0 m/hr
7 7 Gilbert VASQUEZ Male 300 01:33:11.00 16.7 m/hr
8 8 Marty CARROLL Male 351 01:39:01.00 15.8 m/hr
9 10 Ezekiel GARCIA Male 104 01:40:51.00 15.5 m/hr
10 13 David WEDEL Male 316 01:42:45.00 15.2 m/hr
11 14 Graeme WALKER Male 340 01:42:49.00 15.2 m/hr
12 15 Rafael XIMENEZ Male 326 01:42:57.00 15.2 m/hr
13 16 John STARK Male 276 01:43:26.00 15.1 m/hr
14 17 Jonathan FERNANDEZ Male 93 01:43:36.00 15.1 m/hr
15 19 Nelson BURGOS Male 37 01:47:53.00 14.5 m/hr
16 20 Andy RHODES Male 236 01:48:07.00 14.4 m/hr
17 24 Frank TUTTLE Male 294 01:48:36.00 14.4 m/hr
18 26 Royal SMITH Male 270 01:48:41.00 14.4 m/hr
19 27 Greg TELLES Male 283 01:49:05.00 14.3 m/hr
20 29 Casey MARSHALL Male 178 01:49:40.00 14.2 m/hr
21 31 Edward CAIN Male 356 01:49:50.00 14.2 m/hr
22 32 Elliot FREY Male 101 01:51:28.00 14.0 m/hr
23 35 Rudy BEJAR Male 16 01:52:17.00 13.9 m/hr
24 36 Larry PETTY Male 217 01:52:23.00 13.9 m/hr
25 37 Chad French Male 399 01:52:31.00 13.9 m/hr
26 43 Ray DELAHOUSSAYE Male 74 01:56:11.00 13.4 m/hr
27 45 Abraham Jimenez Male 383 01:56:28.00 13.4 m/hr
28 46 Gary MCNABB Male 188 01:56:48.00 13.4 m/hr
29 50 Peter EVANS Male 88 01:57:10.00 13.3 m/hr
30 51 Glenn KUES Male 152 01:57:12.00 13.3 m/hr
31 56 James FAUCETT Male 344 01:58:39.00 13.1 m/hr
32 61 Tomm WISLOFF Male 322 02:00:23.00 13.0 m/hr
33 64 Tom CASAREZ Male 49 02:01:10.00 12.9 m/hr
34 65 Richard TORRES Male 286 02:01:17.00 12.9 m/hr
35 66 Andrew CASAREZ Male 50 02:01:19.00 12.9 m/hr
36 67 Ron SAGER Male 250 02:01:19.00 12.9 m/hr
37 69 Phil BUTERBAUGH Male 345 02:03:44.00 12.6 m/hr
38 71 Scott KANE Male 353 02:04:02.00 12.6 m/hr
39 73 Don COLLIER Male 60 02:05:10.00 12.5 m/hr
40 75 Scott FREY Male 100 02:06:11.00 12.4 m/hr
41 78 Francisco OROCO RODRIGUEZ Male 437 02:07:14.00 12.3 m/hr
42 80 Steve BRYAN Male 35 02:10:13.00 12.0 m/hr
43 82 Xavier MATOS Male 180 02:10:48.00 11.9 m/hr
44 84 Mike SHOWN Male 266 02:14:10.00 11.6 m/hr
45 85 Michael DOMINGUEZ Male 80 02:14:28.00 11.6 m/hr
46 86 Robert GARDNER Male 106 02:14:59.00 11.6 m/hr
47 90 John WATSON Male 313 02:21:40.00 11.0 m/hr
48 98 Jeffrey MOORE Male 336 02:26:05.00 10.7 m/hr
49 101 Bill WALKER Male 306 02:26:32.00 10.6 m/hr
50 104 Thomas KUN Male 153 02:26:54.00 10.6 m/hr
51 106 John DICKENS Male 77 02:27:15.00 10.6 m/hr
52 107 Roberto VALLE JR Male 297 02:27:30.00 10.6 m/hr
53 110 Kevin WALTER Male 310 02:27:59.00 10.5 m/hr
54 117 Tom Lawlor Male 367 02:34:57.00 10.1 m/hr
55 120 David SOSA Male 274 02:41:11.00 9.7 m/hr
56 122 Armando Rosales Male 373 02:42:31.00 9.6 m/hr
57 123 Rob CLARK Male 56 02:43:10.00 9.6 m/hr
58 124 Matthew CLARK Male 57 02:43:13.00 9.6 m/hr
59 125 Walter Wibersick Male 411 02:43:14.00 9.6 m/hr
60 135 Michael Tampkins Male 403 02:58:30.00 8.7 m/hr
61 138 Travis TAYLOR Male 281 03:06:34.00 8.4 m/hr
62 139 Noe Carrillo Male 371 03:12:54.00 8.1 m/hr
63 141 Ted DROMGOOLE Male 83 03:30:33.00 7.4 m/hr
64 142 Raymond FUENTES Male 333 03:42:07.00 7.0 m/hr
65 146 Joseph RODRIGUEZ Male 243 04:27:05.00 5.8 m/hr
1 9 Cheryl BUEHN Female 343 01:40:51.00 15.5 m/hr
2 11 Gracie FARIAS Female 350 01:41:39.00 15.3 m/hr
3 12 Amber WATKINS Female 312 01:42:06.00 15.3 m/hr
4 18 Jessica DE LA FUENTE Female 69 01:45:22.00 14.8 m/hr
5 21 Imelda Aguirre Female 366 01:48:09.00 14.4 m/hr
6 22 Joanna MESECKE Female 192 01:48:30.00 14.4 m/hr
7 23 Nicole BUCCI Female 36 01:48:35.00 14.4 m/hr
8 25 Susan BURTON Female 40 01:48:38.00 14.4 m/hr
9 28 Sharon SWAN Female 279 01:49:26.00 14.3 m/hr
10 30 Hardin LINDY Female 358 01:49:49.00 14.2 m/hr
11 33 Deborah ROBERTSON Female 240 01:52:06.00 13.9 m/hr
12 34 Deanna COLEGATE Female 59 01:52:15.00 13.9 m/hr
13 38 Kaleen DEAN Female 71 01:52:33.00 13.9 m/hr
14 39 Marissa ADAMS Female 3 01:53:52.00 13.7 m/hr
15 40 Linda RUTHERFORD Female 247 01:54:40.00 13.6 m/hr
16 41 Megan Airitam Female 391 01:54:52.00 13.6 m/hr
17 42 Nancy Mangan Female 405 01:55:02.00 13.6 m/hr
18 44 Pamela COCKRUM Female 58 01:56:26.00 13.4 m/hr
19 47 Christine O'DAY Female 203 01:56:58.00 13.3 m/hr
20 48 Sue WEDEL Female 317 01:57:00.00 13.3 m/hr
21 49 Susan KUES Female 151 01:57:03.00 13.3 m/hr
22 52 Janie Tamez Female 382 01:57:16.00 13.3 m/hr
23 53 Adrianne EVANS Female 87 01:57:18.00 13.3 m/hr
24 54 Amy Erickson Female 386 01:57:28.00 13.3 m/hr
25 55 Theresa GOMEZ Female 111 01:57:47.00 13.2 m/hr
26 57 Esther MORENO Female 197 01:59:03.00 13.1 m/hr
27 58 Wolter CARRIE Female 349 01:59:56.00 13.0 m/hr
28 59 Maribel GARCIA Female 338 02:00:16.00 13.0 m/hr
29 60 Kristina GARCIA Female 339 02:00:22.00 13.0 m/hr
30 62 Theresa WISLOFF Female 323 02:00:26.00 13.0 m/hr
31 63 Sandy BARSUN Female 14 02:00:29.00 12.9 m/hr
32 68 Michele DAVIS Female 67 02:02:13.00 12.8 m/hr
33 70 Tasha KANE Female 354 02:04:00.00 12.6 m/hr
34 72 Gloria WALLS Female 308 02:04:41.00 12.5 m/hr
35 74 Hope SAN MIGUEL Female 253 02:05:51.00 12.4 m/hr
36 76 Dayna FREY Female 102 02:07:04.00 12.3 m/hr
37 77 Connie GEERHART Female 107 02:07:07.00 12.3 m/hr
38 79 Christi BRYAN Female 34 02:10:10.00 12.0 m/hr
39 81 Beverly ADAMS Female 1 02:10:41.00 11.9 m/hr
40 83 Angie WATTS Female 315 02:13:18.00 11.7 m/hr
41 87 Sonya THORN Female 285 02:15:20.00 11.5 m/hr
42 88 Melinda SANDOVAL Female 256 02:15:32.00 11.5 m/hr
43 89 Norma BANDA Female 11 02:15:42.00 11.5 m/hr
44 91 Selena SIERRA Female 267 02:21:56.00 11.0 m/hr
45 92 Shannon SCOTT Female 262 02:21:58.00 11.0 m/hr
46 93 Roxanna DE LEON Female 70 02:22:05.00 11.0 m/hr
47 94 Lauren LAWSON Female 159 02:22:19.00 11.0 m/hr
48 95 Gretchen REUWER Female 231 02:24:16.00 10.8 m/hr
49 96 Deidre PERSYN Female 214 02:25:23.00 10.7 m/hr
50 97 Leslie PERSYN Female 215 02:25:24.00 10.7 m/hr
51 99 Yvette HERNANDEZ Female 123 02:26:06.00 10.7 m/hr
52 100 Rose TORREZ Female 287 02:26:29.00 10.7 m/hr
53 102 Althea SMITH Female 271 02:26:50.00 10.6 m/hr
54 103 Krista FLYNN Female 95 02:26:51.00 10.6 m/hr
55 105 Susan DICKENS Female 78 02:27:13.00 10.6 m/hr
56 108 Alison Rollo Female 369 02:27:53.00 10.5 m/hr
57 109 Kellie WINTER Female 321 02:27:59.00 10.5 m/hr
58 111 Justice BARNETT Female 13 02:28:01.00 10.5 m/hr
59 112 Tammi BARNETT Female 12 02:28:04.00 10.5 m/hr
60 113 Candace HARROD Female 119 02:28:33.00 10.5 m/hr
61 114 Tammy BURR Female 39 02:28:55.00 10.5 m/hr
62 115 Deidre HALL Female 116 02:33:55.00 10.1 m/hr
63 116 Lisa CHURCHILL Female 53 02:34:02.00 10.1 m/hr
64 118 Becky SNELL Female 272 02:35:43.00 10.0 m/hr
65 119 Jacquelyn KOENIG Female 150 02:39:45.00 9.8 m/hr
66 121 Lucinda SOSA Female 275 02:41:15.00 9.7 m/hr
67 126 Kathryn CLARK Female 55 02:43:21.00 9.6 m/hr
68 127 Yvette Rosales Female 372 02:43:57.00 9.5 m/hr
69 128 Michaela Rosales Female 375 02:44:00.00 9.5 m/hr
70 129 Malelh Zaletz Female 409 02:44:22.00 9.5 m/hr
71 130 Sofia Rosales Female 376 02:44:30.00 9.5 m/hr
72 131 Madison Rosales Female 374 02:45:19.00 9.4 m/hr
73 132 Connie FURILLO Female 103 02:45:44.00 9.4 m/hr
74 133 Nan MCRAVEN Female 189 02:52:27.00 9.0 m/hr
75 134 Liz ARREAGA Female 8 02:52:31.00 9.0 m/hr
76 136 Jacqueline KAWAS Female 143 03:01:39.00 8.6 m/hr
77 137 Cynthia KAWAS Female 142 03:01:48.00 8.6 m/hr
78 140 Emma DROMGOOLE Female 82 03:29:07.00 7.5 m/hr
79 143 Cynthia ENLOW Female 334 03:46:53.00 6.9 m/hr
80 144 Elsie ANTRIM Female 335 03:51:37.00 6.7 m/hr
81 145 Chris Walker Female 431 04:09:35.00 6.3 m/hr
Chip Timing by RRPTiming.com!

 

[ Jalapeno Race ] [ 26 Mile Sprint Race ] [ 26 Mile Tour ] [ 50 Mile Tour ]

2015 Tour de Jalapeno
50 Mile Tour Results
Overall
Pos
Gender
Pos
Name Gender Race No Finish
Time
1 1 Adam HARRIS Male 117 02:27:55
2 2 Kelly BLAKE Male 20 02:31:38
3 1 Edyta JORDAN Female 140 02:33:57
4 3 Eddy SNELL Male 273 02:34:24
5 4 Byron Smith Male 388 02:34:56
6 5 Earl Anders Male 395 02:42:14
7 6 Marc Dewitt Male 370 02:43:32
8 7 Sean HOULIHAN Male 346 02:47:42
9 8 Kenny ROBILLARD Male 241 02:51:58
10 9 Mark WIGGINTON Male 319 02:58:40
11 10 Brian MORRIS Male 198 03:00:16
12 11 David ESQUIVEL Male 85 03:02:37
13 2 Sharon BEDFORD Female 15 03:02:54
14 12 Ronald LEE Male 163 03:02:55
15 3 Jo PINTO Female 219 03:05:58
16 13 John ESQUIVEL Male 84 03:06:28
17 14 Ian Perry Male 413 03:07:22
18 15 Derek BAER Male 9 03:07:46
19 16 Greg TAYLOR Male 282 03:07:58
20 17 Steve LAWSON Male 160 03:08:27
21 4 Pattsi CAMPBELL Female 43 03:09:11
22 5 Cathy GARCIA Female 105 03:13:26
23 18 Keith Smith Male 427 03:14:57
24 19 Bill SHERLAND Male 265 03:15:35
25 6 Christina Smith Female 428 03:15:55
26 20 Jim RUTHERFORD Male 248 03:15:57
27 21 Jesus CARO JR Male 46 03:19:01
28 22 Person Clay Male 408 03:20:07
29 23 Charles SCHUETZ Male 259 03:21:22
30 24 Nicola SCHERALDI Male 258 03:21:28
31 7 Taylor TANIA Female 359 03:26:12
32 8 Jennifer SMITH Female 342 03:26:18
33 25 John CARLEY Male 45 03:27:56
34 26 William Zamatta Male 430 03:28:55
35 27 Paul Drummont Male 425 03:29:37
36 9 Melanie Drimmord Female 426 03:30:51
37 28 Jose OCHOA Male 202 03:31:02
38 10 Stephanie Ockenkels Female 412 03:32:21
39 11 Eve STEPHENS Female 277 03:33:19
40 12 Carol BURNETT Female 38 03:34:09
41 13 Sharon ROBINETTE Female 242 03:34:13
42 29 Alan FOGARASI Male 97 03:36:44
43 30 William FOGARASI Male 96 03:36:47
44 31 Heath HERRERA Male 124 03:40:53
45 32 Angel RAMIREZ Male 225 03:41:21
46 14 Marisa Balderas Female 415 03:41:58
47 33 Juan Flores Male 414 03:41:59
48 34 Filiberto CRUZ Male 62 03:42:10
49 15 Kacie VARNER Female 299 03:42:56
50 35 Alexander VARNER Male 298 03:43:02
51 36 Steve TURNER Male 291 03:44:31
52 37 Larry FAJKUS Male 89 03:44:57
53 38 Andrew UNDERWOOD Male 295 03:45:30
54 16 Lisa Mccowl Female 368 03:45:41
55 39 Jason BRIDGEMAN Male 26 03:46:51
56 40 John MASSIE Male 179 03:46:56
57 17 Haley WAGNER Female 304 03:47:12
58 18 Rosie HARRIS Female 118 03:47:27
59 19 Cynthia MICHAEL Female 193 03:48:35
60 20 Jerelyn GRADER Female 113 03:48:37
61 41 David MICHAEL Male 194 03:48:41
62 21 Lisa REYNOLDS Female 235 03:49:43
63 22 Gloria VALLE Female 296 03:49:55
64 42 Michael COSENTINO Male 61 03:50:01
65 23 Irma L. CHITTA Female 51 03:50:14
66 43 Terry Ruelas Male 422 03:50:20
67 44 Benjamin Rvelas Male 421 03:50:21
68 45 Gary KLATT Male 148 03:53:35
69 46 Roger HEARD Male 120 03:55:51
70 24 Amanda FITZPATRICK Female 94 03:55:52
71 25 Christy ZINN Female 332 03:57:39
72 47 Rick ZINN Male 331 03:58:08
73 48 Robert CUNDIFF Male 65 03:59:22
74 49 Adrian CHITTA Male 52 03:59:57
75 50 Kevin LUECK Male 172 04:02:41
76 51 David Walker Male 420 04:12:29
77 52 John ZIMMERS Male 330 04:16:44
78 26 Christie MAYER Female 181 04:34:11
79 27 Chassy ZBOJNIEWICZ Female 357 04:37:27
80 28 Marci ZBOJNIEWICZ Female 329 04:37:33
81 53 Andrew JANAK Male 134 04:39:36
82 29 Michelle REYES Female 233 04:41:30
83 54 Henry REYES Male 232 04:41:34
Chip Timing by RRPTiming.com!

© copyright 2013, RRPTiming.com. RRPTiming is a Redemption Race Productions site. Website by Rich.